Marstons Mills, MA

7:52 PM EDT on August 27, 2014 (GMT -0400)
WA1JSE Cape Cod | Change Station
CLOSE
Current Station
Personal Weather Station
Location: Osterville, MA
Elevation: 49 ft
Nearby Weather Stations
Active Advisory: High Surf Advisory

Elev 49 ft 41.65 °N, 70.38 °W | Updated 5 seconds ago

Clear
Clear
73.0 °F
Feels Like 77 °F
N
0.0
Wind Variable Wind from North
Gusts 0.0 mph

Today
High -- | Low -- °F
--% Chance of Precip.
Yesterday
High -- | Low -- °F
Precip. -- in
6:02 AM 7:23 PM
Waxing Crescent, 5% visible
Pressure 29.90 in
Visibility 10.0 miles
Clouds Clear
Heat Index 77 °F
Dew Point 50 °F
Humidity 44%
Rainfall 0.00 in
Snow Depth Not available.
UV 0 out of 12
Pollen 8.60 out of 12
Air Quality Not available.
Flu Activity Not available.
METAR KFMH 272335Z AUTO 22006KT 10SM CLR 22/15 A2990 RMK AO2

More Conditions Fewer Conditions

Pressure 29.90 in
Visibility 10.0 miles
Clouds Clear
Heat Index 77 °F
Dew Point 50 °F
Humidity 44%
Rainfall 0.00 in
Snow Depth Not available.
UV 0 out of 12
Pollen 8.60 out of 12
Air Quality Not available.
Flu Activity Not available.
METAR KFMH 272335Z AUTO 22006KT 10SM CLR 22/15 A2990 RMK AO2

More Conditions Fewer Conditions

10-Day Weather Forecast

Almanac

Astronomy

Aug. 27, 2014 Rise Set
Actual Time 6:02 AM EDT 7:23 PM EDT
Civil Twilight 5:33 AM EDT 7:51 PM EDT
Nautical Twilight 4:58 AM EDT 8:26 PM EDT
Astronomical Twilight 4:22 AM EDT 9:02 PM EDT
Moon 7:57 AM EDT 8:11 PM EDT
Length of Visible Light 14h 18m
Length of Day
13h 20m
Tomorrow will be 2m 39s shorter.
Waxing Crescent, 5% of the Moon is Illuminated
Today
Waxing Crescent
Sep 2
First Quarter
Sep 8
Full
Sep 15
Last Quarter
Sep 24
New

Today's Extremes

State Highs State Lows

Community

WunderPhotos

Upload Photos

1,747,816 photos uploaded!

Nearby

Air Quality

  Air Quality AQ Index Pollutant
Yesterday Good
OZONE
Wednesday Good
PM2.5
Thursday Good
PM2.5
Thursday Good
OZONE

Snow Depth

Station Depth Elevation
No new snow has been reported.

Earthquake Activity

City Distance Mag. Time & Date
No recent earthquake activity has been reported nearby.
Minimum magnitude displayed is 2.5.

Coastal Water Temperatures

Place Temperature
Nantucket Island, MA 73.0 °F
Woods Hole, MA 72.0 °F
Fall River, MA 73.9 °F
Boston, MA 69.1 °F

Nearby Weather Stations